sensor_id;sensor_type;location;lat;lon;timestamp;P1;durP1;ratioP1;P2;durP2;ratioP2
12005;SDS011;6062;47.294;12.182;2022-08-30T00:01:23;2.13;;;1.92;;
12005;SDS011;6062;47.294;12.182;2022-08-30T00:03:55;2.05;;;1.85;;
12005;SDS011;6062;47.294;12.182;2022-08-30T00:06:22;2.00;;;1.80;;
12005;SDS011;6062;47.294;12.182;2022-08-30T00:08:51;2.10;;;1.90;;
12005;SDS011;6062;47.294;12.182;2022-08-30T00:11:20;2.58;;;2.10;;
12005;SDS011;6062;47.294;12.182;2022-08-30T00:13:50;1.92;;;1.80;;
12005;SDS011;6062;47.294;12.182;2022-08-30T00:16:18;2.40;;;2.20;;
12005;SDS011;6062;47.294;12.182;2022-08-30T00:18:47;2.30;;;2.10;;
12005;SDS011;6062;47.294;12.182;2022-08-30T00:21:13;2.28;;;1.80;;
12005;SDS011;6062;47.294;12.182;2022-08-30T00:23:39;2.70;;;2.25;;
12005;SDS011;6062;47.294;12.182;2022-08-30T00:26:06;2.85;;;2.13;;
12005;SDS011;6062;47.294;12.182;2022-08-30T00:28:32;2.78;;;2.08;;
12005;SDS011;6062;47.294;12.182;2022-08-30T00:30:59;2.15;;;1.80;;
12005;SDS011;6062;47.294;12.182;2022-08-30T00:33:26;2.47;;;2.20;;
12005;SDS011;6062;47.294;12.182;2022-08-30T00:35:53;2.30;;;2.10;;
12005;SDS011;6062;47.294;12.182;2022-08-30T00:38:19;2.28;;;2.00;;
12005;SDS011;6062;47.294;12.182;2022-08-30T00:40:47;4.65;;;1.95;;
12005;SDS011;6062;47.294;12.182;2022-08-30T00:43:16;2.95;;;1.83;;
12005;SDS011;6062;47.294;12.182;2022-08-30T00:45:47;1.90;;;1.70;;
12005;SDS011;6062;47.294;12.182;2022-08-30T00:48:14;2.20;;;1.90;;
12005;SDS011;6062;47.294;12.182;2022-08-30T00:50:42;2.00;;;1.80;;
12005;SDS011;6062;47.294;12.182;2022-08-30T00:53:14;2.17;;;1.92;;
12005;SDS011;6062;47.294;12.182;2022-08-30T00:55:45;2.45;;;2.10;;
12005;SDS011;6062;47.294;12.182;2022-08-30T00:58:13;2.38;;;2.17;;
12005;SDS011;6062;47.294;12.182;2022-08-30T01:00:46;1.98;;;1.77;;
12005;SDS011;6062;47.294;12.182;2022-08-30T01:03:18;2.30;;;2.10;;
12005;SDS011;6062;47.294;12.182;2022-08-30T01:05:45;2.20;;;2.00;;
12005;SDS011;6062;47.294;12.182;2022-08-30T01:08:13;2.50;;;2.17;;
12005;SDS011;6062;47.294;12.182;2022-08-30T01:10:39;3.70;;;2.00;;
12005;SDS011;6062;47.294;12.182;2022-08-30T01:13:07;2.05;;;1.85;;
12005;SDS011;6062;47.294;12.182;2022-08-30T01:15:36;2.72;;;2.03;;
12005;SDS011;6062;47.294;12.182;2022-08-30T01:18:02;2.40;;;1.80;;
12005;SDS011;6062;47.294;12.182;2022-08-30T01:20:31;2.30;;;2.10;;
12005;SDS011;6062;47.294;12.182;2022-08-30T01:23:14;2.90;;;2.15;;
12005;SDS011;6062;47.294;12.182;2022-08-30T01:25:44;1.95;;;1.70;;
12005;SDS011;6062;47.294;12.182;2022-08-30T01:28:14;2.30;;;2.10;;
12005;SDS011;6062;47.294;12.182;2022-08-30T01:30:47;2.20;;;2.00;;
12005;SDS011;6062;47.294;12.182;2022-08-30T01:33:13;2.50;;;2.08;;
12005;SDS011;6062;47.294;12.182;2022-08-30T01:35:44;2.05;;;1.80;;
12005;SDS011;6062;47.294;12.182;2022-08-30T01:38:18;2.50;;;2.30;;
12005;SDS011;6062;47.294;12.182;2022-08-30T01:40:48;3.55;;;2.28;;
12005;SDS011;6062;47.294;12.182;2022-08-30T01:43:14;4.50;;;2.10;;
12005;SDS011;6062;47.294;12.182;2022-08-30T01:45:43;2.80;;;2.22;;
12005;SDS011;6062;47.294;12.182;2022-08-30T01:48:09;3.13;;;2.30;;
12005;SDS011;6062;47.294;12.182;2022-08-30T01:50:39;2.80;;;2.53;;
12005;SDS011;6062;47.294;12.182;2022-08-30T01:53:06;3.65;;;2.20;;
12005;SDS011;6062;47.294;12.182;2022-08-30T01:55:34;2.30;;;2.10;;
12005;SDS011;6062;47.294;12.182;2022-08-30T01:58:02;2.33;;;2.08;;
12005;SDS011;6062;47.294;12.182;2022-08-30T02:00:29;4.00;;;2.20;;
12005;SDS011;6062;47.294;12.182;2022-08-30T02:02:54;2.20;;;1.98;;
12005;SDS011;6062;47.294;12.182;2022-08-30T02:05:22;2.33;;;2.10;;
12005;SDS011;6062;47.294;12.182;2022-08-30T02:07:48;2.40;;;1.98;;
12005;SDS011;6062;47.294;12.182;2022-08-30T02:10:13;2.60;;;2.40;;
12005;SDS011;6062;47.294;12.182;2022-08-30T02:12:40;3.17;;;2.65;;
12005;SDS011;6062;47.294;12.182;2022-08-30T02:15:06;3.45;;;2.20;;
12005;SDS011;6062;47.294;12.182;2022-08-30T02:17:33;4.20;;;2.38;;
12005;SDS011;6062;47.294;12.182;2022-08-30T02:20:00;2.53;;;2.10;;
12005;SDS011;6062;47.294;12.182;2022-08-30T02:22:26;2.33;;;2.13;;
12005;SDS011;6062;47.294;12.182;2022-08-30T02:24:51;2.35;;;2.15;;
12005;SDS011;6062;47.294;12.182;2022-08-30T02:27:17;2.30;;;2.10;;
12005;SDS011;6062;47.294;12.182;2022-08-30T02:29:43;2.15;;;1.95;;
12005;SDS011;6062;47.294;12.182;2022-08-30T02:32:08;2.10;;;1.90;;
12005;SDS011;6062;47.294;12.182;2022-08-30T02:34:34;2.40;;;2.20;;
12005;SDS011;6062;47.294;12.182;2022-08-30T02:37:00;3.35;;;2.22;;
12005;SDS011;6062;47.294;12.182;2022-08-30T02:39:26;2.78;;;2.38;;
12005;SDS011;6062;47.294;12.182;2022-08-30T02:41:52;2.55;;;2.35;;
12005;SDS011;6062;47.294;12.182;2022-08-30T02:44:18;2.38;;;2.17;;
12005;SDS011;6062;47.294;12.182;2022-08-30T02:46:43;2.63;;;2.20;;
12005;SDS011;6062;47.294;12.182;2022-08-30T02:49:09;3.08;;;2.10;;
12005;SDS011;6062;47.294;12.182;2022-08-30T02:51:35;2.78;;;2.30;;
12005;SDS011;6062;47.294;12.182;2022-08-30T02:54:01;2.50;;;2.30;;
12005;SDS011;6062;47.294;12.182;2022-08-30T02:56:27;4.70;;;2.63;;
12005;SDS011;6062;47.294;12.182;2022-08-30T02:58:53;2.47;;;2.22;;
12005;SDS011;6062;47.294;12.182;2022-08-30T03:01:19;2.40;;;2.20;;
12005;SDS011;6062;47.294;12.182;2022-08-30T03:03:45;2.45;;;2.25;;
12005;SDS011;6062;47.294;12.182;2022-08-30T03:06:11;2.72;;;2.20;;
12005;SDS011;6062;47.294;12.182;2022-08-30T03:08:38;2.58;;;2.00;;
12005;SDS011;6062;47.294;12.182;2022-08-30T03:11:04;2.35;;;2.13;;
12005;SDS011;6062;47.294;12.182;2022-08-30T03:13:30;2.55;;;2.35;;
12005;SDS011;6062;47.294;12.182;2022-08-30T03:15:56;2.35;;;2.15;;
12005;SDS011;6062;47.294;12.182;2022-08-30T03:18:22;2.58;;;2.38;;
12005;SDS011;6062;47.294;12.182;2022-08-30T03:20:49;2.30;;;2.10;;
12005;SDS011;6062;47.294;12.182;2022-08-30T03:23:16;2.60;;;2.35;;
12005;SDS011;6062;47.294;12.182;2022-08-30T03:25:42;2.38;;;2.10;;
12005;SDS011;6062;47.294;12.182;2022-08-30T03:28:08;2.50;;;2.20;;
12005;SDS011;6062;47.294;12.182;2022-08-30T03:30:34;2.40;;;2.20;;
12005;SDS011;6062;47.294;12.182;2022-08-30T03:33:00;3.50;;;2.13;;
12005;SDS011;6062;47.294;12.182;2022-08-30T03:35:26;2.50;;;2.13;;
12005;SDS011;6062;47.294;12.182;2022-08-30T03:37:52;2.20;;;2.00;;
12005;SDS011;6062;47.294;12.182;2022-08-30T03:40:19;2.47;;;2.20;;
12005;SDS011;6062;47.294;12.182;2022-08-30T03:42:46;2.63;;;2.42;;
12005;SDS011;6062;47.294;12.182;2022-08-30T03:45:13;2.20;;;2.00;;
12005;SDS011;6062;47.294;12.182;2022-08-30T03:47:41;2.50;;;2.20;;
12005;SDS011;6062;47.294;12.182;2022-08-30T03:50:09;3.00;;;2.40;;
12005;SDS011;6062;47.294;12.182;2022-08-30T03:52:37;3.78;;;2.13;;
12005;SDS011;6062;47.294;12.182;2022-08-30T03:55:03;2.60;;;2.40;;
12005;SDS011;6062;47.294;12.182;2022-08-30T03:57:30;2.47;;;2.28;;
12005;SDS011;6062;47.294;12.182;2022-08-30T03:59:56;2.40;;;2.20;;
12005;SDS011;6062;47.294;12.182;2022-08-30T04:02:22;2.55;;;2.20;;
12005;SDS011;6062;47.294;12.182;2022-08-30T04:04:48;2.42;;;2.08;;
12005;SDS011;6062;47.294;12.182;2022-08-30T04:07:13;2.28;;;2.00;;
12005;SDS011;6062;47.294;12.182;2022-08-30T04:09:39;2.35;;;2.00;;
12005;SDS011;6062;47.294;12.182;2022-08-30T04:12:05;2.50;;;2.30;;
12005;SDS011;6062;47.294;12.182;2022-08-30T04:14:31;2.70;;;2.30;;
12005;SDS011;6062;47.294;12.182;2022-08-30T04:16:57;2.35;;;2.15;;
12005;SDS011;6062;47.294;12.182;2022-08-30T04:19:23;2.42;;;2.22;;
12005;SDS011;6062;47.294;12.182;2022-08-30T04:21:49;2.05;;;1.85;;
12005;SDS011;6062;47.294;12.182;2022-08-30T04:24:15;2.45;;;2.25;;
12005;SDS011;6062;47.294;12.182;2022-08-30T04:26:41;2.28;;;2.00;;
12005;SDS011;6062;47.294;12.182;2022-08-30T04:29:07;3.40;;;2.15;;
12005;SDS011;6062;47.294;12.182;2022-08-30T04:31:35;3.13;;;2.22;;
12005;SDS011;6062;47.294;12.182;2022-08-30T04:34:01;2.45;;;2.25;;
12005;SDS011;6062;47.294;12.182;2022-08-30T04:36:27;3.20;;;2.38;;
12005;SDS011;6062;47.294;12.182;2022-08-30T04:38:53;2.60;;;2.40;;
12005;SDS011;6062;47.294;12.182;2022-08-30T04:41:19;2.33;;;2.13;;
12005;SDS011;6062;47.294;12.182;2022-08-30T04:43:48;2.42;;;2.22;;
12005;SDS011;6062;47.294;12.182;2022-08-30T04:46:14;2.30;;;2.10;;
12005;SDS011;6062;47.294;12.182;2022-08-30T04:48:42;3.65;;;2.40;;
12005;SDS011;6062;47.294;12.182;2022-08-30T04:51:09;2.67;;;2.40;;
12005;SDS011;6062;47.294;12.182;2022-08-30T04:53:38;2.55;;;2.35;;
12005;SDS011;6062;47.294;12.182;2022-08-30T04:56:09;3.30;;;2.20;;
12005;SDS011;6062;47.294;12.182;2022-08-30T04:58:41;2.63;;;2.35;;
12005;SDS011;6062;47.294;12.182;2022-08-30T05:01:15;2.55;;;2.35;;
12005;SDS011;6062;47.294;12.182;2022-08-30T05:03:45;4.20;;;3.80;;
12005;SDS011;6062;47.294;12.182;2022-08-30T05:06:12;12.27;;;10.75;;
12005;SDS011;6062;47.294;12.182;2022-08-30T05:08:39;8.15;;;7.32;;
12005;SDS011;6062;47.294;12.182;2022-08-30T05:11:05;5.28;;;4.78;;
12005;SDS011;6062;47.294;12.182;2022-08-30T05:13:33;3.90;;;3.50;;
12005;SDS011;6062;47.294;12.182;2022-08-30T05:16:01;3.00;;;2.70;;
12005;SDS011;6062;47.294;12.182;2022-08-30T05:18:29;2.90;;;2.60;;
12005;SDS011;6062;47.294;12.182;2022-08-30T05:21:08;3.17;;;2.50;;
12005;SDS011;6062;47.294;12.182;2022-08-30T05:23:39;2.53;;;2.33;;
12005;SDS011;6062;47.294;12.182;2022-08-30T05:26:06;2.50;;;2.30;;
12005;SDS011;6062;47.294;12.182;2022-08-30T05:28:39;3.28;;;2.70;;
12005;SDS011;6062;47.294;12.182;2022-08-30T05:31:16;2.55;;;2.35;;
12005;SDS011;6062;47.294;12.182;2022-08-30T05:33:46;2.65;;;2.42;;
12005;SDS011;6062;47.294;12.182;2022-08-30T05:36:14;3.00;;;2.70;;
12005;SDS011;6062;47.294;12.182;2022-08-30T05:38:43;2.95;;;2.65;;
12005;SDS011;6062;47.294;12.182;2022-08-30T05:41:09;2.90;;;2.55;;
12005;SDS011;6062;47.294;12.182;2022-08-30T05:43:36;3.13;;;2.50;;
12005;SDS011;6062;47.294;12.182;2022-08-30T05:46:05;2.97;;;2.67;;
12005;SDS011;6062;47.294;12.182;2022-08-30T05:48:34;3.03;;;2.72;;
12005;SDS011;6062;47.294;12.182;2022-08-30T05:51:12;3.20;;;2.90;;
12005;SDS011;6062;47.294;12.182;2022-08-30T05:53:45;3.30;;;2.90;;
12005;SDS011;6062;47.294;12.182;2022-08-30T05:56:15;4.22;;;3.08;;
12005;SDS011;6062;47.294;12.182;2022-08-30T05:58:45;2.92;;;2.63;;
12005;SDS011;6062;47.294;12.182;2022-08-30T06:01:25;4.53;;;2.85;;
12005;SDS011;6062;47.294;12.182;2022-08-30T06:03:52;2.90;;;2.70;;
12005;SDS011;6062;47.294;12.182;2022-08-30T06:06:20;13.02;;;6.63;;
12005;SDS011;6062;47.294;12.182;2022-08-30T06:08:47;4.63;;;3.40;;
12005;SDS011;6062;47.294;12.182;2022-08-30T06:11:16;3.10;;;2.80;;
12005;SDS011;6062;47.294;12.182;2022-08-30T06:13:44;4.63;;;3.75;;
12005;SDS011;6062;47.294;12.182;2022-08-30T06:16:11;5.70;;;3.78;;
12005;SDS011;6062;47.294;12.182;2022-08-30T06:18:40;3.45;;;3.15;;
12005;SDS011;6062;47.294;12.182;2022-08-30T06:21:06;3.47;;;3.00;;
12005;SDS011;6062;47.294;12.182;2022-08-30T06:23:32;2.97;;;2.67;;
12005;SDS011;6062;47.294;12.182;2022-08-30T06:26:05;3.10;;;2.80;;
12005;SDS011;6062;47.294;12.182;2022-08-30T06:28:31;3.17;;;2.88;;
12005;SDS011;6062;47.294;12.182;2022-08-30T06:30:58;2.88;;;2.63;;
12005;SDS011;6062;47.294;12.182;2022-08-30T06:33:24;2.80;;;2.50;;
12005;SDS011;6062;47.294;12.182;2022-08-30T06:35:49;3.15;;;2.85;;
12005;SDS011;6062;47.294;12.182;2022-08-30T06:38:22;2.80;;;2.60;;
12005;SDS011;6062;47.294;12.182;2022-08-30T06:40:48;3.17;;;2.65;;
12005;SDS011;6062;47.294;12.182;2022-08-30T06:43:14;2.72;;;2.53;;
12005;SDS011;6062;47.294;12.182;2022-08-30T06:45:40;3.00;;;2.80;;
12005;SDS011;6062;47.294;12.182;2022-08-30T06:48:06;3.65;;;2.60;;
12005;SDS011;6062;47.294;12.182;2022-08-30T06:50:32;3.42;;;2.35;;
12005;SDS011;6062;47.294;12.182;2022-08-30T06:52:57;2.50;;;2.30;;
12005;SDS011;6062;47.294;12.182;2022-08-30T06:55:29;3.10;;;2.70;;
12005;SDS011;6062;47.294;12.182;2022-08-30T06:58:00;2.80;;;2.45;;
12005;SDS011;6062;47.294;12.182;2022-08-30T07:00:27;2.60;;;2.40;;
12005;SDS011;6062;47.294;12.182;2022-08-30T07:02:54;3.22;;;2.88;;
12005;SDS011;6062;47.294;12.182;2022-08-30T07:05:19;3.17;;;2.88;;
12005;SDS011;6062;47.294;12.182;2022-08-30T07:07:51;4.97;;;2.70;;
12005;SDS011;6062;47.294;12.182;2022-08-30T07:10:18;2.80;;;2.60;;
12005;SDS011;6062;47.294;12.182;2022-08-30T07:12:45;2.60;;;2.22;;
12005;SDS011;6062;47.294;12.182;2022-08-30T07:15:12;2.60;;;2.40;;
12005;SDS011;6062;47.294;12.182;2022-08-30T07:17:38;2.72;;;2.50;;
12005;SDS011;6062;47.294;12.182;2022-08-30T07:20:22;4.57;;;2.88;;
12005;SDS011;6062;47.294;12.182;2022-08-30T07:22:48;2.88;;;2.45;;
12005;SDS011;6062;47.294;12.182;2022-08-30T07:25:14;4.28;;;2.90;;
12005;SDS011;6062;47.294;12.182;2022-08-30T07:27:40;3.53;;;2.60;;
12005;SDS011;6062;47.294;12.182;2022-08-30T07:30:07;2.70;;;2.50;;
12005;SDS011;6062;47.294;12.182;2022-08-30T07:32:34;2.65;;;2.35;;
12005;SDS011;6062;47.294;12.182;2022-08-30T07:35:00;3.53;;;2.38;;
12005;SDS011;6062;47.294;12.182;2022-08-30T07:37:25;2.85;;;2.53;;
12005;SDS011;6062;47.294;12.182;2022-08-30T07:39:51;2.40;;;2.20;;
12005;SDS011;6062;47.294;12.182;2022-08-30T07:42:17;3.28;;;2.53;;
12005;SDS011;6062;47.294;12.182;2022-08-30T07:44:43;3.03;;;2.75;;
12005;SDS011;6062;47.294;12.182;2022-08-30T07:47:09;2.60;;;2.40;;
12005;SDS011;6062;47.294;12.182;2022-08-30T07:49:36;2.40;;;2.20;;
12005;SDS011;6062;47.294;12.182;2022-08-30T07:52:02;2.58;;;2.30;;
12005;SDS011;6062;47.294;12.182;2022-08-30T07:54:28;2.80;;;2.55;;
12005;SDS011;6062;47.294;12.182;2022-08-30T07:56:54;2.58;;;2.38;;
12005;SDS011;6062;47.294;12.182;2022-08-30T07:59:21;2.50;;;2.30;;
12005;SDS011;6062;47.294;12.182;2022-08-30T08:01:47;2.47;;;2.28;;
12005;SDS011;6062;47.294;12.182;2022-08-30T08:04:13;2.60;;;2.40;;
12005;SDS011;6062;47.294;12.182;2022-08-30T08:06:39;2.42;;;2.22;;
12005;SDS011;6062;47.294;12.182;2022-08-30T08:09:05;2.25;;;2.05;;
12005;SDS011;6062;47.294;12.182;2022-08-30T08:11:33;2.95;;;2.65;;
12005;SDS011;6062;47.294;12.182;2022-08-30T08:14:00;2.40;;;2.20;;
12005;SDS011;6062;47.294;12.182;2022-08-30T08:16:28;3.33;;;2.10;;
12005;SDS011;6062;47.294;12.182;2022-08-30T08:18:57;2.90;;;2.20;;
12005;SDS011;6062;47.294;12.182;2022-08-30T08:21:23;2.65;;;2.30;;
12005;SDS011;6062;47.294;12.182;2022-08-30T08:23:50;2.83;;;2.30;;
12005;SDS011;6062;47.294;12.182;2022-08-30T08:26:16;2.50;;;2.30;;
12005;SDS011;6062;47.294;12.182;2022-08-30T08:28:43;2.70;;;2.50;;
12005;SDS011;6062;47.294;12.182;2022-08-30T08:31:14;2.42;;;2.22;;
12005;SDS011;6062;47.294;12.182;2022-08-30T08:33:52;2.47;;;2.28;;
12005;SDS011;6062;47.294;12.182;2022-08-30T08:36:19;2.60;;;2.40;;
12005;SDS011;6062;47.294;12.182;2022-08-30T08:38:45;2.45;;;2.25;;
12005;SDS011;6062;47.294;12.182;2022-08-30T08:41:22;2.50;;;2.30;;
12005;SDS011;6062;47.294;12.182;2022-08-30T08:43:57;2.60;;;2.40;;
12005;SDS011;6062;47.294;12.182;2022-08-30T08:46:31;2.60;;;2.40;;
12005;SDS011;6062;47.294;12.182;2022-08-30T08:49:18;3.65;;;2.42;;
12005;SDS011;6062;47.294;12.182;2022-08-30T08:51:45;2.42;;;2.22;;
12005;SDS011;6062;47.294;12.182;2022-08-30T08:54:37;2.80;;;2.60;;
12005;SDS011;6062;47.294;12.182;2022-08-30T08:57:22;4.32;;;2.88;;
12005;SDS011;6062;47.294;12.182;2022-08-30T08:59:48;2.42;;;2.22;;
12005;SDS011;6062;47.294;12.182;2022-08-30T09:02:25;2.40;;;2.20;;
12005;SDS011;6062;47.294;12.182;2022-08-30T09:04:57;2.53;;;2.33;;
12005;SDS011;6062;47.294;12.182;2022-08-30T09:07:29;2.60;;;2.40;;
12005;SDS011;6062;47.294;12.182;2022-08-30T09:10:04;2.53;;;2.30;;
12005;SDS011;6062;47.294;12.182;2022-08-30T09:12:31;3.28;;;2.63;;
12005;SDS011;6062;47.294;12.182;2022-08-30T09:15:14;2.92;;;2.63;;
12005;SDS011;6062;47.294;12.182;2022-08-30T09:17:49;2.70;;;2.50;;
12005;SDS011;6062;47.294;12.182;2022-08-30T09:20:23;2.50;;;2.30;;
12005;SDS011;6062;47.294;12.182;2022-08-30T09:25:54;2.40;;;2.20;;
12005;SDS011;6062;47.294;12.182;2022-08-30T09:28:24;2.70;;;2.30;;
12005;SDS011;6062;47.294;12.182;2022-08-30T09:31:05;2.55;;;2.35;;
12005;SDS011;6062;47.294;12.182;2022-08-30T09:36:44;2.50;;;2.30;;
12005;SDS011;6062;47.294;12.182;2022-08-30T09:39:16;2.90;;;2.40;;
12005;SDS011;6062;47.294;12.182;2022-08-30T09:41:52;3.33;;;2.22;;
12005;SDS011;6062;47.294;12.182;2022-08-30T09:44:35;3.08;;;2.67;;
12005;SDS011;6062;47.294;12.182;2022-08-30T09:47:02;2.85;;;2.58;;
12005;SDS011;6062;47.294;12.182;2022-08-30T09:58:07;2.92;;;2.70;;
12005;SDS011;6062;47.294;12.182;2022-08-30T10:01:01;3.10;;;2.85;;
12005;SDS011;6062;47.294;12.182;2022-08-30T10:03:38;3.08;;;2.78;;
12005;SDS011;6062;47.294;12.182;2022-08-30T10:06:30;3.13;;;2.75;;
12005;SDS011;6062;47.294;12.182;2022-08-30T10:09:13;3.47;;;3.17;;
12005;SDS011;6062;47.294;12.182;2022-08-30T10:12:10;3.25;;;2.60;;
12005;SDS011;6062;47.294;12.182;2022-08-30T10:18:26;3.40;;;2.78;;
12005;SDS011;6062;47.294;12.182;2022-08-30T10:21:19;3.08;;;2.75;;
12005;SDS011;6062;47.294;12.182;2022-08-30T10:24:00;3.65;;;2.85;;
12005;SDS011;6062;47.294;12.182;2022-08-30T10:26:37;3.25;;;2.85;;
12005;SDS011;6062;47.294;12.182;2022-08-30T10:32:35;3.50;;;2.70;;
12005;SDS011;6062;47.294;12.182;2022-08-30T10:34:40;3.83;;;3.20;;
12005;SDS011;6062;47.294;12.182;2022-08-30T10:37:35;3.25;;;2.92;;
12005;SDS011;6062;47.294;12.182;2022-08-30T10:40:18;3.88;;;2.90;;
12005;SDS011;6062;47.294;12.182;2022-08-30T10:43:25;2.88;;;2.67;;
12005;SDS011;6062;47.294;12.182;2022-08-30T10:46:07;3.83;;;3.17;;
12005;SDS011;6062;47.294;12.182;2022-08-30T10:48:45;3.15;;;2.85;;
12005;SDS011;6062;47.294;12.182;2022-08-30T10:54:11;3.25;;;2.95;;
12005;SDS011;6062;47.294;12.182;2022-08-30T10:56:48;3.35;;;3.05;;
12005;SDS011;6062;47.294;12.182;2022-08-30T10:59:16;3.40;;;3.10;;
12005;SDS011;6062;47.294;12.182;2022-08-30T11:10:52;3.13;;;2.83;;
12005;SDS011;6062;47.294;12.182;2022-08-30T11:13:41;3.10;;;2.80;;
12005;SDS011;6062;47.294;12.182;2022-08-30T11:16:15;3.20;;;2.90;;
12005;SDS011;6062;47.294;12.182;2022-08-30T11:18:50;3.20;;;2.90;;
12005;SDS011;6062;47.294;12.182;2022-08-30T11:21:25;3.08;;;2.78;;
12005;SDS011;6062;47.294;12.182;2022-08-30T11:31:54;3.33;;;3.03;;
12005;SDS011;6062;47.294;12.182;2022-08-30T11:37:41;3.15;;;2.80;;
12005;SDS011;6062;47.294;12.182;2022-08-30T11:40:43;3.00;;;2.70;;
12005;SDS011;6062;47.294;12.182;2022-08-30T11:49:34;3.63;;;3.20;;
12005;SDS011;6062;47.294;12.182;2022-08-30T11:54:11;3.72;;;3.30;;
12005;SDS011;6062;47.294;12.182;2022-08-30T11:57:12;3.72;;;3.08;;
12005;SDS011;6062;47.294;12.182;2022-08-30T12:00:26;3.30;;;3.00;;
12005;SDS011;6062;47.294;12.182;2022-08-30T12:05:56;3.97;;;3.00;;
12005;SDS011;6062;47.294;12.182;2022-08-30T12:11:04;3.80;;;3.38;;
12005;SDS011;6062;47.294;12.182;2022-08-30T12:16:08;2.92;;;2.67;;
12005;SDS011;6062;47.294;12.182;2022-08-30T12:21:29;3.42;;;3.13;;
12005;SDS011;6062;47.294;12.182;2022-08-30T12:24:03;3.42;;;3.13;;
12005;SDS011;6062;47.294;12.182;2022-08-30T12:26:38;3.95;;;3.53;;
12005;SDS011;6062;47.294;12.182;2022-08-30T12:29:21;3.30;;;3.00;;
12005;SDS011;6062;47.294;12.182;2022-08-30T12:31:56;3.35;;;3.00;;
12005;SDS011;6062;47.294;12.182;2022-08-30T12:37:09;5.07;;;3.10;;
12005;SDS011;6062;47.294;12.182;2022-08-30T12:42:31;3.25;;;2.95;;
12005;SDS011;6062;47.294;12.182;2022-08-30T12:45:04;3.40;;;3.05;;
12005;SDS011;6062;47.294;12.182;2022-08-30T12:47:41;3.35;;;2.90;;
12005;SDS011;6062;47.294;12.182;2022-08-30T12:50:17;3.03;;;2.70;;
12005;SDS011;6062;47.294;12.182;2022-08-30T12:53:02;3.35;;;3.05;;
12005;SDS011;6062;47.294;12.182;2022-08-30T12:55:34;3.40;;;3.10;;
12005;SDS011;6062;47.294;12.182;2022-08-30T12:58:35;3.40;;;3.10;;
12005;SDS011;6062;47.294;12.182;2022-08-30T13:01:24;4.53;;;3.70;;
12005;SDS011;6062;47.294;12.182;2022-08-30T13:07:00;3.53;;;3.03;;
12005;SDS011;6062;47.294;12.182;2022-08-30T13:09:44;3.85;;;3.05;;
12005;SDS011;6062;47.294;12.182;2022-08-30T13:12:20;3.85;;;3.45;;
12005;SDS011;6062;47.294;12.182;2022-08-30T13:14:50;3.67;;;3.28;;
12005;SDS011;6062;47.294;12.182;2022-08-30T13:19:43;3.83;;;3.22;;
12005;SDS011;6062;47.294;12.182;2022-08-30T13:22:31;4.13;;;3.63;;
12005;SDS011;6062;47.294;12.182;2022-08-30T13:25:02;3.60;;;3.30;;
12005;SDS011;6062;47.294;12.182;2022-08-30T13:27:30;4.13;;;3.60;;
12005;SDS011;6062;47.294;12.182;2022-08-30T13:29:56;3.80;;;3.30;;
12005;SDS011;6062;47.294;12.182;2022-08-30T13:32:30;3.33;;;2.97;;
12005;SDS011;6062;47.294;12.182;2022-08-30T13:35:01;4.38;;;3.03;;
12005;SDS011;6062;47.294;12.182;2022-08-30T13:37:27;3.55;;;3.25;;
12005;SDS011;6062;47.294;12.182;2022-08-30T13:39:54;3.40;;;3.10;;
12005;SDS011;6062;47.294;12.182;2022-08-30T13:42:20;4.03;;;3.45;;
12005;SDS011;6062;47.294;12.182;2022-08-30T13:44:45;3.80;;;3.40;;
12005;SDS011;6062;47.294;12.182;2022-08-30T13:47:11;3.83;;;3.40;;
12005;SDS011;6062;47.294;12.182;2022-08-30T13:49:38;3.67;;;3.38;;
12005;SDS011;6062;47.294;12.182;2022-08-30T13:52:05;3.65;;;3.35;;
12005;SDS011;6062;47.294;12.182;2022-08-30T13:54:33;4.18;;;3.78;;
12005;SDS011;6062;47.294;12.182;2022-08-30T13:56:59;4.32;;;3.90;;
12005;SDS011;6062;47.294;12.182;2022-08-30T13:59:25;4.07;;;3.67;;
12005;SDS011;6062;47.294;12.182;2022-08-30T14:01:52;4.00;;;3.53;;
12005;SDS011;6062;47.294;12.182;2022-08-30T14:04:19;4.05;;;3.65;;
12005;SDS011;6062;47.294;12.182;2022-08-30T14:06:45;3.80;;;3.50;;
12005;SDS011;6062;47.294;12.182;2022-08-30T14:09:11;4.05;;;3.65;;
12005;SDS011;6062;47.294;12.182;2022-08-30T14:11:38;3.90;;;3.50;;
12005;SDS011;6062;47.294;12.182;2022-08-30T14:14:05;4.22;;;3.83;;
12005;SDS011;6062;47.294;12.182;2022-08-30T14:16:31;4.25;;;3.80;;
12005;SDS011;6062;47.294;12.182;2022-08-30T14:18:59;4.22;;;3.83;;
12005;SDS011;6062;47.294;12.182;2022-08-30T14:21:26;3.83;;;3.42;;
12005;SDS011;6062;47.294;12.182;2022-08-30T14:23:52;4.25;;;3.85;;
12005;SDS011;6062;47.294;12.182;2022-08-30T14:26:27;3.88;;;3.45;;
12005;SDS011;6062;47.294;12.182;2022-08-30T14:29:05;4.22;;;3.80;;
12005;SDS011;6062;47.294;12.182;2022-08-30T14:31:35;4.10;;;3.50;;
12005;SDS011;6062;47.294;12.182;2022-08-30T14:34:05;3.97;;;3.58;;
12005;SDS011;6062;47.294;12.182;2022-08-30T14:36:34;3.13;;;2.83;;
12005;SDS011;6062;47.294;12.182;2022-08-30T14:39:06;3.60;;;3.30;;
12005;SDS011;6062;47.294;12.182;2022-08-30T14:41:39;4.28;;;3.78;;
12005;SDS011;6062;47.294;12.182;2022-08-30T14:44:17;3.75;;;3.45;;
12005;SDS011;6062;47.294;12.182;2022-08-30T14:46:45;3.78;;;3.47;;
12005;SDS011;6062;47.294;12.182;2022-08-30T14:49:11;4.35;;;3.95;;
12005;SDS011;6062;47.294;12.182;2022-08-30T14:51:39;4.30;;;3.90;;
12005;SDS011;6062;47.294;12.182;2022-08-30T14:54:05;4.30;;;3.90;;
12005;SDS011;6062;47.294;12.182;2022-08-30T14:56:32;3.60;;;3.30;;
12005;SDS011;6062;47.294;12.182;2022-08-30T14:58:58;4.18;;;3.72;;
12005;SDS011;6062;47.294;12.182;2022-08-30T15:01:26;4.93;;;4.43;;
12005;SDS011;6062;47.294;12.182;2022-08-30T15:03:55;4.30;;;3.90;;
12005;SDS011;6062;47.294;12.182;2022-08-30T15:06:22;4.50;;;4.10;;
12005;SDS011;6062;47.294;12.182;2022-08-30T15:08:49;4.90;;;4.40;;
12005;SDS011;6062;47.294;12.182;2022-08-30T15:11:17;4.45;;;4.05;;
12005;SDS011;6062;47.294;12.182;2022-08-30T15:13:46;4.90;;;4.38;;
12005;SDS011;6062;47.294;12.182;2022-08-30T15:16:13;5.22;;;4.03;;
12005;SDS011;6062;47.294;12.182;2022-08-30T15:18:56;4.93;;;4.43;;
12005;SDS011;6062;47.294;12.182;2022-08-30T15:21:24;4.53;;;4.13;;
12005;SDS011;6062;47.294;12.182;2022-08-30T15:23:57;4.38;;;3.97;;
12005;SDS011;6062;47.294;12.182;2022-08-30T15:26:23;4.10;;;3.50;;
12005;SDS011;6062;47.294;12.182;2022-08-30T15:28:50;4.55;;;4.15;;
12005;SDS011;6062;47.294;12.182;2022-08-30T15:31:20;4.88;;;4.10;;
12005;SDS011;6062;47.294;12.182;2022-08-30T15:33:53;4.22;;;3.83;;
12005;SDS011;6062;47.294;12.182;2022-08-30T15:36:19;4.10;;;3.78;;
12005;SDS011;6062;47.294;12.182;2022-08-30T15:38:45;5.10;;;4.15;;
12005;SDS011;6062;47.294;12.182;2022-08-30T15:41:11;4.40;;;4.00;;
12005;SDS011;6062;47.294;12.182;2022-08-30T15:43:37;4.20;;;3.80;;
12005;SDS011;6062;47.294;12.182;2022-08-30T15:49:14;4.20;;;3.80;;
12005;SDS011;6062;47.294;12.182;2022-08-30T15:51:46;6.35;;;4.90;;
12005;SDS011;6062;47.294;12.182;2022-08-30T15:54:15;6.45;;;4.32;;
12005;SDS011;6062;47.294;12.182;2022-08-30T15:56:43;5.38;;;4.65;;
12005;SDS011;6062;47.294;12.182;2022-08-30T15:59:10;5.60;;;5.00;;
12005;SDS011;6062;47.294;12.182;2022-08-30T16:01:39;4.10;;;3.70;;
12005;SDS011;6062;47.294;12.182;2022-08-30T16:04:06;4.57;;;3.60;;
12005;SDS011;6062;47.294;12.182;2022-08-30T16:06:33;3.83;;;3.42;;
12005;SDS011;6062;47.294;12.182;2022-08-30T16:09:02;4.40;;;3.67;;
12005;SDS011;6062;47.294;12.182;2022-08-30T16:11:32;4.28;;;3.88;;
12005;SDS011;6062;47.294;12.182;2022-08-30T16:13:58;5.03;;;4.53;;
12005;SDS011;6062;47.294;12.182;2022-08-30T16:16:24;8.70;;;6.30;;
12005;SDS011;6062;47.294;12.182;2022-08-30T16:18:51;8.85;;;7.93;;
12005;SDS011;6062;47.294;12.182;2022-08-30T16:21:19;7.15;;;5.45;;
12005;SDS011;6062;47.294;12.182;2022-08-30T16:23:49;5.78;;;5.15;;